createdAt,value
2023-05-06T00:03:29.494Z,12.03
2023-05-06T00:07:42.632Z,12.06
2023-05-06T00:11:55.095Z,12.16
2023-05-06T00:16:07.711Z,12.17
2023-05-06T00:20:20.177Z,12.14
2023-05-06T00:24:32.669Z,12.11
2023-05-06T00:28:45.197Z,12.16
2023-05-06T00:32:57.817Z,12.12
2023-05-06T00:37:10.302Z,11.93
2023-05-06T00:41:22.778Z,11.75
2023-05-06T00:45:35.598Z,11.60
2023-05-06T00:49:48.897Z,11.47
2023-05-06T00:54:02.661Z,11.32
2023-05-06T00:58:15.825Z,11.34
2023-05-06T01:02:39.665Z,11.31
2023-05-06T01:07:13.406Z,11.34
2023-05-06T01:11:44.501Z,11.19
2023-05-06T01:16:00.201Z,11.08
2023-05-06T01:20:14.139Z,11.02
2023-05-06T01:24:42.218Z,10.89
2023-05-06T01:28:55.661Z,10.72
2023-05-06T01:33:37.225Z,10.62
2023-05-06T01:38:23.122Z,10.57
2023-05-06T01:42:37.039Z,10.68
2023-05-06T01:46:50.823Z,10.60
2023-05-06T01:51:04.061Z,10.55
2023-05-06T01:55:16.677Z,10.76
2023-05-06T01:59:29.710Z,10.86
2023-05-06T02:03:42.667Z,10.96
2023-05-06T02:07:55.186Z,11.01
2023-05-06T02:12:07.674Z,11.00
2023-05-06T02:16:20.298Z,10.96
2023-05-06T02:20:32.757Z,10.91
2023-05-06T02:24:54.105Z,10.93
2023-05-06T02:29:06.721Z,10.83
2023-05-06T02:33:19.163Z,10.83
2023-05-06T02:37:31.599Z,10.79
2023-05-06T02:41:44.038Z,10.78
2023-05-06T02:45:56.522Z,10.57
2023-05-06T02:50:09.316Z,10.81
2023-05-06T02:54:27.976Z,10.77
2023-05-06T02:58:40.394Z,10.79
2023-05-06T03:02:52.915Z,10.75
2023-05-06T03:07:05.375Z,10.67
2023-05-06T03:11:17.774Z,10.67
2023-05-06T03:15:30.310Z,10.55
2023-05-06T03:19:42.799Z,10.44
2023-05-06T03:23:55.284Z,10.55
2023-05-06T03:28:07.737Z,10.57
2023-05-06T03:32:29.082Z,10.62
2023-05-06T03:36:41.616Z,10.74
2023-05-06T03:40:55.004Z,11.01
2023-05-06T03:45:08.819Z,11.04
2023-05-06T03:49:21.866Z,11.01
2023-05-06T03:53:34.425Z,10.93
2023-05-06T03:57:46.975Z,10.93
2023-05-06T04:02:00.019Z,10.80
2023-05-06T04:06:12.597Z,10.80
2023-05-06T04:10:25.481Z,10.69
2023-05-06T04:14:37.926Z,10.67
2023-05-06T04:18:52.317Z,10.62
2023-05-06T04:23:05.133Z,10.62
2023-05-06T04:27:17.845Z,10.59
2023-05-06T04:31:30.357Z,10.65
2023-05-06T04:35:53.932Z,10.99
2023-05-06T04:40:10.058Z,11.15
2023-05-06T04:44:23.183Z,11.49
2023-05-06T04:48:36.121Z,11.84
2023-05-06T04:52:48.627Z,12.17
2023-05-06T04:57:01.718Z,12.29
2023-05-06T05:01:14.178Z,12.44
2023-05-06T05:05:28.512Z,12.66
2023-05-06T05:09:40.989Z,12.91
2023-05-06T05:13:55.391Z,13.01
2023-05-06T05:18:09.730Z,13.46
2023-05-06T05:22:22.230Z,13.54
2023-05-06T05:26:34.663Z,13.65
2023-05-06T05:30:47.332Z,13.81
2023-05-06T05:34:59.860Z,14.20
2023-05-06T05:39:12.323Z,14.40
2023-05-06T05:43:26.784Z,14.08
2023-05-06T05:47:40.202Z,14.35
2023-05-06T05:51:52.658Z,14.62
2023-05-06T05:56:05.439Z,14.66
2023-05-06T06:00:18.584Z,14.62
2023-05-06T06:04:31.668Z,14.52
2023-05-06T06:08:44.256Z,14.46
2023-05-06T06:12:56.891Z,14.47
2023-05-06T06:17:19.411Z,14.45
2023-05-06T06:21:41.892Z,14.05
2023-05-06T06:25:54.339Z,13.96
2023-05-06T06:30:07.847Z,13.97
2023-05-06T06:34:20.330Z,14.60
2023-05-06T06:38:32.864Z,15.17
2023-05-06T06:42:45.404Z,14.61
2023-05-06T06:46:57.913Z,14.19
2023-05-06T06:51:10.717Z,14.38
2023-05-06T06:55:23.281Z,14.27
2023-05-06T06:59:35.868Z,14.46
2023-05-06T07:03:48.446Z,14.50
2023-05-06T07:08:00.997Z,14.75
2023-05-06T07:12:13.564Z,15.47
2023-05-06T07:16:26.081Z,14.62
2023-05-06T07:20:38.535Z,15.16
2023-05-06T07:24:50.959Z,15.15
2023-05-06T07:29:04.963Z,15.92
2023-05-06T07:33:17.431Z,17.09
2023-05-06T07:37:29.854Z,17.34
2023-05-06T07:41:42.300Z,17.82
2023-05-06T07:46:03.044Z,17.86
2023-05-06T07:50:15.525Z,17.79
2023-05-06T07:54:28.746Z,17.55
2023-05-06T07:58:41.321Z,17.86
2023-05-06T08:02:53.940Z,18.48
2023-05-06T08:07:07.586Z,19.66
2023-05-06T08:11:26.538Z,18.76
2023-05-06T08:15:39.890Z,17.75
2023-05-06T08:19:52.377Z,17.55
2023-05-06T08:24:05.209Z,17.03
2023-05-06T08:28:18.142Z,16.54
2023-05-06T08:32:30.790Z,17.23
2023-05-06T08:36:43.917Z,17.21
2023-05-06T08:41:01.707Z,17.70
2023-05-06T08:45:15.742Z,18.08
2023-05-06T08:49:28.477Z,18.35
2023-05-06T08:53:52.786Z,18.10
2023-05-06T08:58:08.411Z,18.47
2023-05-06T09:02:22.632Z,19.29
2023-05-06T09:06:35.250Z,19.80
2023-05-06T09:10:48.377Z,20.31
2023-05-06T09:15:00.896Z,19.72
2023-05-06T09:19:14.874Z,19.72
2023-05-06T09:23:27.541Z,19.14
2023-05-06T09:27:50.014Z,19.84
2023-05-06T09:32:06.722Z,20.13
2023-05-06T09:36:19.490Z,20.85
2023-05-06T09:40:32.571Z,20.59
2023-05-06T09:44:45.790Z,20.33
2023-05-06T09:48:59.416Z,20.38
2023-05-06T09:53:14.092Z,20.56
2023-05-06T09:57:27.089Z,20.25
2023-05-06T10:01:40.455Z,18.90
2023-05-06T10:05:55.304Z,20.49
2023-05-06T10:10:12.282Z,19.63
2023-05-06T10:14:24.805Z,18.98
2023-05-06T10:18:39.402Z,19.69
2023-05-06T10:23:08.085Z,20.13
2023-05-06T10:27:25.640Z,18.44
2023-05-06T10:32:00.261Z,21.96
2023-05-06T10:36:21.267Z,21.83
2023-05-06T10:40:33.753Z,20.83
2023-05-06T10:44:59.897Z,20.14
2023-05-06T10:49:14.561Z,18.96
2023-05-06T10:54:03.539Z,19.44
2023-05-06T10:58:19.924Z,21.55
2023-05-06T11:02:32.781Z,22.91
2023-05-06T11:06:53.848Z,23.59
2023-05-06T11:12:03.489Z,22.64
2023-05-06T11:16:49.502Z,23.35
2023-05-06T11:21:01.892Z,21.86
2023-05-06T11:25:14.585Z,19.69
2023-05-06T11:29:27.825Z,19.91
2023-05-06T11:33:48.541Z,21.34
2023-05-06T11:38:01.448Z,22.73
2023-05-06T11:42:14.003Z,24.26
2023-05-06T11:46:33.990Z,21.50
2023-05-06T11:50:48.678Z,22.70
2023-05-06T11:55:12.769Z,24.43
2023-05-06T11:59:31.406Z,23.52
2023-05-06T12:03:44.012Z,20.81
2023-05-06T12:07:56.714Z,19.97
2023-05-06T12:12:11.274Z,21.10
2023-05-06T12:16:24.972Z,22.03
2023-05-06T12:20:37.596Z,22.74
2023-05-06T12:25:00.194Z,23.39
2023-05-06T12:29:17.606Z,24.39
2023-05-06T12:33:46.168Z,23.76
2023-05-06T12:38:15.187Z,21.96
2023-05-06T12:42:27.845Z,23.96
2023-05-06T12:46:52.351Z,25.27
2023-05-06T12:51:23.717Z,24.02
2023-05-06T12:55:38.649Z,22.07
2023-05-06T12:59:51.407Z,23.83
2023-05-06T13:04:13.838Z,24.45
2023-05-06T13:08:26.517Z,25.63
2023-05-06T13:12:39.092Z,25.52
2023-05-06T13:17:01.825Z,24.98
2023-05-06T13:21:14.849Z,21.75
2023-05-06T13:25:30.699Z,23.56
2023-05-06T13:29:43.270Z,24.49
2023-05-06T13:33:56.710Z,24.06
2023-05-06T13:38:09.133Z,23.15
2023-05-06T13:42:21.628Z,23.00
2023-05-06T13:46:34.149Z,24.24
2023-05-06T13:50:47.791Z,25.25
2023-05-06T13:55:00.319Z,24.98
2023-05-06T13:59:14.742Z,24.77
2023-05-06T14:03:27.829Z,23.49
2023-05-06T14:07:40.612Z,24.74
2023-05-06T14:12:03.635Z,24.84
2023-05-06T14:16:17.389Z,24.26
2023-05-06T14:20:39.881Z,23.73
2023-05-06T14:24:52.362Z,24.14
2023-05-06T14:29:05.031Z,21.91
2023-05-06T14:33:17.586Z,21.90
2023-05-06T14:37:29.989Z,21.22
2023-05-06T14:41:42.415Z,22.22
2023-05-06T14:45:54.978Z,20.96
2023-05-06T14:50:10.160Z,22.37
2023-05-06T14:54:22.619Z,22.03
2023-05-06T14:58:35.083Z,22.11
2023-05-06T15:02:47.651Z,23.27
2023-05-06T15:07:10.183Z,24.20
2023-05-06T15:11:22.789Z,24.74
2023-05-06T15:15:35.483Z,24.50
2023-05-06T15:19:48.439Z,25.54
2023-05-06T15:24:10.869Z,26.06
2023-05-06T15:28:24.727Z,26.75
2023-05-06T15:32:37.403Z,27.40
2023-05-06T15:36:53.137Z,28.38
2023-05-06T15:41:15.680Z,27.35
2023-05-06T15:45:28.328Z,24.56
2023-05-06T15:54:06.056Z,22.57
2023-05-06T15:58:18.597Z,23.20
2023-05-06T16:02:40.157Z,24.27
2023-05-06T16:06:54.142Z,24.08
2023-05-06T16:11:07.762Z,24.26
2023-05-06T16:15:20.669Z,24.37
2023-05-06T16:19:35.632Z,22.57
2023-05-06T16:23:48.075Z,21.66
2023-05-06T16:28:00.705Z,21.22
2023-05-06T16:32:13.179Z,21.27
2023-05-06T16:36:29.288Z,21.35
2023-05-06T16:40:43.561Z,20.88
2023-05-06T16:44:56.222Z,21.86
2023-05-06T16:49:10.881Z,22.81
2023-05-06T16:53:24.621Z,22.95
2023-05-06T16:57:37.402Z,22.82
2023-05-06T17:01:50.771Z,22.93
2023-05-06T17:06:03.278Z,21.99
2023-05-06T17:10:15.701Z,21.01
2023-05-06T17:14:28.172Z,20.38
2023-05-06T17:18:40.580Z,20.29
2023-05-06T17:22:53.275Z,20.22
2023-05-06T17:27:05.813Z,20.42
2023-05-06T17:31:21.180Z,20.39
2023-05-06T17:35:33.851Z,20.01
2023-05-06T17:39:47.099Z,19.61
2023-05-06T17:43:59.624Z,19.20
2023-05-06T17:48:12.177Z,19.06
2023-05-06T17:52:27.720Z,18.83
2023-05-06T17:56:40.156Z,18.44
2023-05-06T18:01:03.600Z,18.40
2023-05-06T18:05:17.636Z,17.98
2023-05-06T18:09:40.118Z,17.77
2023-05-06T18:13:52.543Z,17.51
2023-05-06T18:18:05.172Z,17.16
2023-05-06T18:22:17.919Z,16.89
2023-05-06T18:26:44.624Z,16.74
2023-05-06T18:30:57.666Z,16.26
2023-05-06T18:35:11.759Z,16.03
2023-05-06T18:39:34.511Z,15.63
2023-05-06T18:43:47.060Z,15.31
2023-05-06T18:47:59.569Z,15.07
2023-05-06T18:52:15.255Z,14.81
2023-05-06T18:56:27.727Z,14.66
2023-05-06T19:00:40.210Z,14.48
2023-05-06T19:04:52.709Z,14.33
2023-05-06T19:09:08.610Z,14.14
2023-05-06T19:13:21.486Z,14.10
2023-05-06T19:17:34.008Z,14.23
2023-05-06T19:21:46.580Z,14.08
2023-05-06T19:26:11.899Z,13.89
2023-05-06T19:30:24.432Z,13.77
2023-05-06T19:34:37.912Z,13.64
2023-05-06T19:38:50.388Z,13.64
2023-05-06T19:43:04.720Z,13.43
2023-05-06T19:47:30.193Z,13.28
2023-05-06T19:51:42.920Z,13.22
2023-05-06T19:56:11.325Z,13.22
2023-05-06T20:00:26.137Z,13.31
2023-05-06T20:04:38.650Z,13.33
2023-05-06T20:08:51.392Z,13.38
2023-05-06T20:13:04.723Z,13.34
2023-05-06T20:17:17.928Z,13.37
2023-05-06T20:21:30.517Z,13.15
2023-05-06T20:25:43.121Z,13.27
2023-05-06T20:29:55.659Z,13.15
2023-05-06T20:34:08.166Z,13.03
2023-05-06T20:38:21.449Z,12.94
2023-05-06T20:42:37.062Z,12.98
2023-05-06T20:46:49.477Z,12.94
2023-05-06T20:51:02.184Z,12.82
2023-05-06T20:55:17.494Z,12.56
2023-05-06T20:59:40.007Z,12.48
2023-05-06T21:03:52.591Z,12.35
2023-05-06T21:08:05.335Z,12.29
2023-05-06T21:12:18.396Z,12.24
2023-05-06T21:16:31.614Z,12.21
2023-05-06T21:20:44.134Z,12.17
2023-05-06T21:24:56.866Z,12.05
2023-05-06T21:29:09.430Z,11.96
2023-05-06T21:33:21.882Z,11.96
2023-05-06T21:37:36.368Z,11.96
2023-05-06T21:41:49.420Z,11.93
2023-05-06T21:46:04.863Z,11.94
2023-05-06T21:50:17.420Z,12.03
2023-05-06T21:54:39.808Z,11.85
2023-05-06T21:58:57.984Z,11.89
2023-05-06T22:03:10.505Z,11.80
2023-05-06T22:07:25.624Z,11.75
2023-05-06T22:11:39.209Z,11.69
2023-05-06T22:15:52.899Z,11.70
2023-05-06T22:20:06.790Z,11.68
2023-05-06T22:24:19.625Z,11.66
2023-05-06T22:28:35.065Z,11.65
2023-05-06T22:32:47.649Z,11.65
2023-05-06T22:37:00.975Z,11.74
2023-05-06T22:41:13.785Z,11.78
2023-05-06T22:45:26.213Z,11.66
2023-05-06T22:49:39.150Z,11.52
2023-05-06T22:53:51.726Z,11.22
2023-05-06T22:58:04.244Z,11.43
2023-05-06T23:02:20.931Z,11.38
2023-05-06T23:06:33.569Z,11.27
2023-05-06T23:10:56.020Z,11.22
2023-05-06T23:15:18.467Z,11.26
2023-05-06T23:19:30.946Z,11.23
2023-05-06T23:23:43.383Z,11.10
2023-05-06T23:28:06.457Z,11.11
2023-05-06T23:32:19.027Z,11.16
2023-05-06T23:36:31.652Z,11.00
2023-05-06T23:40:44.126Z,11.10
2023-05-06T23:45:07.352Z,11.04
2023-05-06T23:49:19.853Z,11.08
2023-05-06T23:53:34.111Z,11.05
2023-05-06T23:57:46.840Z,10.99
